Time;durP1;ratioP1;P1;durP2;ratioP2;P2;SDS_P1;SDS_P2;PMS_P1;PMS_P2;Temp;Humidity;BMP_temperature;BMP_pressure;BME280_temperature;BME280_humidity;BME280_pressure;Samples;Min_cycle;Max_cycle;Signal;HPM_P1;HPM_P2
2021/12/20 00:00:17;;;;;;;43.33;39.53;;;6.50;99.90;;;;;;5034784;28;20466;-69
2021/12/20 00:02:46;;;;;;;39.23;35.93;;;6.50;99.90;;;;;;5033094;28;20549;-72
2021/12/20 00:05:15;;;;;;;41.77;38.20;;;6.50;99.90;;;;;;5036162;28;20575;-72
2021/12/20 00:07:43;;;;;;;42.87;39.37;;;6.50;99.90;;;;;;5031045;28;20583;-70
2021/12/20 00:10:10;;;;;;;42.83;39.33;;;6.50;99.90;;;;;;5038255;28;20468;-69
2021/12/20 00:12:37;;;;;;;44.53;40.50;;;6.50;99.90;;;;;;5038405;28;20868;-72
2021/12/20 00:15:05;;;;;;;43.40;39.53;;;6.50;99.90;;;;;;5034791;28;20464;-72
2021/12/20 00:17:32;;;;;;;42.63;38.73;;;6.50;99.90;;;;;;5040927;28;20460;-72
2021/12/20 00:20:00;;;;;;;43.33;39.40;;;6.50;99.90;;;;;;5028172;28;20569;-71
2021/12/20 00:22:27;;;;;;;43.30;39.20;;;6.50;99.90;;;;;;5038753;28;20567;-72
2021/12/20 00:24:55;;;;;;;39.47;36.10;;;6.40;99.90;;;;;;5034133;28;20462;-72
2021/12/20 00:27:22;;;;;;;41.90;38.23;;;6.40;99.90;;;;;;5029910;28;20478;-72
2021/12/20 00:29:50;;;;;;;42.70;37.40;;;6.40;99.90;;;;;;5037636;28;20987;-71
2021/12/20 00:32:18;;;;;;;43.07;39.47;;;6.40;99.90;;;;;;5038935;28;20479;-72
2021/12/20 00:34:46;;;;;;;40.83;37.50;;;6.50;99.90;;;;;;5036541;28;20504;-70
2021/12/20 00:42:40;;;;;;;41.90;37.33;;;6.40;99.90;;;;;;5034974;28;21069;-69
2021/12/20 00:45:08;;;;;;;40.53;37.10;;;6.40;99.90;;;;;;5038728;28;20887;-70
2021/12/20 00:47:35;;;;;;;40.70;37.43;;;6.40;99.90;;;;;;5041999;28;20470;-70
2021/12/20 00:50:03;;;;;;;38.00;34.67;;;6.40;99.90;;;;;;5034411;28;20941;-71
2021/12/20 00:52:29;;;;;;;38.40;34.63;;;6.40;99.90;;;;;;5034014;28;20929;-70
2021/12/20 00:54:58;;;;;;;39.50;34.40;;;6.30;99.90;;;;;;5040359;28;20463;-70
2021/12/20 00:57:24;;;;;;;37.43;33.47;;;6.30;99.90;;;;;;5039365;28;20459;-70
2021/12/20 00:59:51;;;;;;;36.07;32.30;;;6.30;99.90;;;;;;5035033;28;20461;-70
2021/12/20 01:02:18;;;;;;;36.93;34.07;;;6.30;99.90;;;;;;5041306;28;20479;-70
2021/12/20 01:04:45;;;;;;;38.87;34.67;;;6.30;99.90;;;;;;5038544;28;20479;-69
2021/12/20 01:07:12;;;;;;;39.60;35.57;;;6.40;99.90;;;;;;5037145;28;20452;-70
2021/12/20 01:09:39;;;;;;;38.67;35.10;;;6.30;99.90;;;;;;5037848;28;20465;-70
2021/12/20 01:12:15;;;;;;;38.27;34.47;;;6.30;99.90;;;;;;5039131;28;20951;-69
2021/12/20 01:14:42;;;;;;;38.73;34.73;;;6.40;99.90;;;;;;5035267;28;20462;-70
2021/12/20 01:17:09;;;;;;;38.30;34.47;;;6.30;99.90;;;;;;5052845;28;20813;-72
2021/12/20 01:19:38;;;;;;;36.73;32.67;;;6.40;99.90;;;;;;5031168;28;20831;-71
2021/12/20 01:22:06;;;;;;;37.07;33.20;;;6.30;99.90;;;;;;5035141;28;20833;-72
2021/12/20 01:24:34;;;;;;;37.73;33.87;;;6.40;99.90;;;;;;5037286;28;20466;-71
2021/12/20 01:27:01;;;;;;;37.33;33.63;;;6.30;99.90;;;;;;5034001;28;21321;-72
2021/12/20 01:29:29;;;;;;;36.43;33.10;;;6.30;99.90;;;;;;5041112;28;20503;-70
2021/12/20 01:31:56;;;;;;;39.30;35.40;;;6.30;99.90;;;;;;5033046;28;20470;-69
2021/12/20 01:34:23;;;;;;;35.30;31.83;;;6.30;99.90;;;;;;5040310;28;20464;-72
2021/12/20 01:36:50;;;;;;;36.37;33.27;;;6.30;99.90;;;;;;5036031;28;20635;-70
2021/12/20 01:39:18;;;;;;;36.63;33.53;;;6.20;99.90;;;;;;5037387;28;20460;-71
2021/12/20 01:41:46;;;;;;;36.77;33.87;;;6.20;99.90;;;;;;5034498;28;20483;-70
2021/12/20 01:44:13;;;;;;;38.10;34.77;;;6.30;99.90;;;;;;5031477;28;20472;-69
2021/12/20 01:46:42;;;;;;;37.87;34.77;;;6.30;99.90;;;;;;5041055;28;20506;-72
2021/12/20 01:49:12;;;;;;;37.57;33.77;;;6.30;99.90;;;;;;5038490;28;20461;-72
2021/12/20 01:51:51;;;;;;;37.03;33.40;;;6.30;99.90;;;;;;5036957;28;20510;-69
2021/12/20 01:54:18;;;;;;;37.53;34.50;;;6.30;99.90;;;;;;5031844;28;21240;-70
2021/12/20 01:56:45;;;;;;;40.27;35.80;;;6.30;99.90;;;;;;5038073;28;20524;-71
2021/12/20 01:59:13;;;;;;;37.40;34.23;;;6.30;99.90;;;;;;5033096;28;20471;-70
2021/12/20 02:01:44;;;;;;;37.00;33.87;;;6.30;99.90;;;;;;5036787;28;20469;-71
2021/12/20 02:04:12;;;;;;;36.13;33.37;;;6.30;99.90;;;;;;5035593;28;21002;-71
2021/12/20 02:06:40;;;;;;;37.13;33.43;;;6.30;99.90;;;;;;5029706;28;20468;-72
2021/12/20 02:09:10;;;;;;;37.80;34.30;;;6.30;99.90;;;;;;5036659;28;20929;-69
2021/12/20 02:11:38;;;;;;;46.83;35.37;;;6.30;99.90;;;;;;5035349;28;20468;-68
2021/12/20 02:14:05;;;;;;;38.80;34.60;;;6.30;99.90;;;;;;5038152;28;20470;-71
2021/12/20 02:16:33;;;;;;;38.43;34.23;;;6.30;99.90;;;;;;5043873;28;20512;-69
2021/12/20 02:19:04;;;;;;;41.60;35.00;;;6.40;99.90;;;;;;5037319;28;20549;-72
2021/12/20 02:21:34;;;;;;;35.87;32.67;;;6.30;99.90;;;;;;5035957;28;20816;-69
2021/12/20 02:24:01;;;;;;;37.17;33.73;;;6.40;99.90;;;;;;5034025;28;20488;-70
2021/12/20 02:26:28;;;;;;;37.67;33.77;;;6.40;99.90;;;;;;5032539;28;20879;-69
2021/12/20 02:29:00;;;;;;;35.73;32.83;;;6.40;99.90;;;;;;5035058;28;20485;-71
2021/12/20 02:39:40;;;;;;;35.43;32.53;;;6.40;99.90;;;;;;5042095;28;20478;-72
2021/12/20 02:42:09;;;;;;;36.47;33.27;;;6.40;99.90;;;;;;5034088;28;20486;-71
2021/12/20 02:44:36;;;;;;;35.87;32.07;;;6.40;99.90;;;;;;5035817;28;20972;-72
2021/12/20 02:47:14;;;;;;;35.87;32.87;;;6.40;99.90;;;;;;5035366;28;21074;-70
2021/12/20 02:49:42;;;;;;;36.93;33.03;;;6.40;99.90;;;;;;5034760;28;20542;-70
2021/12/20 02:52:10;;;;;;;36.37;32.87;;;6.30;99.90;;;;;;5036748;28;20492;-72
2021/12/20 02:54:37;;;;;;;36.60;32.80;;;6.40;99.90;;;;;;5030807;28;20467;-70
2021/12/20 02:57:05;;;;;;;35.80;32.23;;;6.40;99.90;;;;;;5033793;28;20470;-69
2021/12/20 02:59:32;;;;;;;36.63;33.10;;;6.40;99.90;;;;;;5038076;28;20468;-70
2021/12/20 03:02:01;;;;;;;35.80;32.57;;;6.40;99.90;;;;;;5034308;28;20471;-70
2021/12/20 03:04:28;;;;;;;34.67;31.73;;;6.40;99.90;;;;;;5036277;28;20499;-69
2021/12/20 03:06:57;;;;;;;35.37;31.53;;;6.40;99.90;;;;;;5036141;28;20463;-71
2021/12/20 03:09:30;;;;;;;34.53;31.07;;;6.40;99.90;;;;;;5036078;28;20993;-72
2021/12/20 03:11:59;;;;;;;34.30;30.77;;;6.40;99.90;;;;;;5042669;28;20561;-70
2021/12/20 03:14:29;;;;;;;33.13;30.03;;;6.40;99.90;;;;;;5032692;28;20547;-69
2021/12/20 03:16:57;;;;;;;32.60;29.50;;;6.40;99.90;;;;;;5035037;28;20518;-69
2021/12/20 03:19:23;;;;;;;33.80;30.73;;;6.40;99.90;;;;;;5036665;28;20471;-69
2021/12/20 03:21:51;;;;;;;31.53;28.90;;;6.40;99.90;;;;;;5038994;28;20478;-69
2021/12/20 03:24:18;;;;;;;31.23;28.83;;;6.40;99.90;;;;;;5031996;28;21090;-69
2021/12/20 03:26:48;;;;;;;32.30;29.23;;;6.40;99.90;;;;;;5035572;28;20857;-69
2021/12/20 03:29:14;;;;;;;33.90;30.57;;;6.30;99.90;;;;;;5034401;28;20465;-69
2021/12/20 03:31:42;;;;;;;32.00;28.77;;;6.30;99.90;;;;;;5032170;28;20467;-69
2021/12/20 03:34:10;;;;;;;31.97;28.73;;;6.40;99.90;;;;;;5028302;28;21007;-69
2021/12/20 03:36:38;;;;;;;34.53;29.30;;;6.40;99.90;;;;;;5027943;28;20472;-69
2021/12/20 03:39:07;;;;;;;30.97;27.80;;;6.40;99.90;;;;;;5037326;28;20544;-69
2021/12/20 03:41:34;;;;;;;30.00;26.83;;;6.40;99.90;;;;;;5036525;28;20492;-69
2021/12/20 03:44:02;;;;;;;30.03;26.97;;;6.30;99.90;;;;;;5034031;28;20497;-69
2021/12/20 03:46:29;;;;;;;31.63;26.90;;;6.30;99.90;;;;;;5034546;28;20841;-69
2021/12/20 03:48:56;;;;;;;29.10;26.40;;;6.30;99.90;;;;;;5031900;28;20485;-69
2021/12/20 03:51:23;;;;;;;30.00;26.93;;;6.30;99.90;;;;;;5030419;28;20461;-68
2021/12/20 03:53:49;;;;;;;33.23;26.20;;;6.20;99.90;;;;;;5029451;28;20462;-69
2021/12/20 03:56:16;;;;;;;28.77;25.97;;;6.30;99.90;;;;;;5034102;28;20466;-69
2021/12/20 03:58:43;;;;;;;27.23;24.93;;;6.30;99.90;;;;;;5030422;28;20498;-69
2021/12/20 04:01:13;;;;;;;28.13;24.87;;;6.20;99.90;;;;;;5034500;28;20474;-68
2021/12/20 04:03:41;;;;;;;27.53;24.30;;;6.30;99.90;;;;;;5031074;28;20556;-68
2021/12/20 04:06:09;;;;;;;26.77;23.37;;;6.30;99.90;;;;;;5038962;28;20527;-69
2021/12/20 04:08:36;;;;;;;27.70;24.67;;;6.20;99.90;;;;;;5030137;28;20480;-69
2021/12/20 04:11:04;;;;;;;25.33;23.03;;;6.20;99.90;;;;;;5035426;28;20821;-69
2021/12/20 04:13:31;;;;;;;30.93;22.83;;;6.20;99.90;;;;;;5033517;28;20479;-69
2021/12/20 04:15:59;;;;;;;26.03;23.30;;;6.20;99.90;;;;;;5035546;28;20464;-69
2021/12/20 04:18:28;;;;;;;30.50;22.63;;;6.20;99.90;;;;;;5036775;28;20466;-69
2021/12/20 04:20:54;;;;;;;25.80;23.20;;;6.20;99.90;;;;;;5035195;28;20465;-68
2021/12/20 04:23:21;;;;;;;24.37;21.93;;;6.20;99.90;;;;;;5031005;28;20501;-69
2021/12/20 04:25:49;;;;;;;29.83;23.13;;;6.20;99.90;;;;;;5037204;28;20455;-69
2021/12/20 04:28:16;;;;;;;29.77;24.10;;;6.20;99.90;;;;;;5034507;28;20465;-68
2021/12/20 04:30:43;;;;;;;24.37;21.83;;;6.10;99.90;;;;;;5041697;28;20473;-69
2021/12/20 04:33:10;;;;;;;25.33;21.67;;;6.20;99.90;;;;;;5037646;28;20460;-69
2021/12/20 04:35:38;;;;;;;32.80;22.33;;;6.10;99.90;;;;;;5036755;28;20481;-68
2021/12/20 04:38:08;;;;;;;25.67;21.73;;;6.10;99.90;;;;;;5033963;28;20474;-68
2021/12/20 04:40:35;;;;;;;23.90;20.97;;;6.10;99.90;;;;;;5035089;28;20482;-68
2021/12/20 04:43:02;;;;;;;23.73;21.40;;;6.10;99.90;;;;;;5033390;28;20483;-69
2021/12/20 04:45:30;;;;;;;29.20;21.30;;;6.20;99.90;;;;;;5034129;28;20460;-68
2021/12/20 04:47:57;;;;;;;23.83;21.40;;;6.20;99.90;;;;;;5038528;28;20479;-69
2021/12/20 04:50:25;;;;;;;23.53;21.10;;;6.10;99.90;;;;;;5037839;28;20459;-68
2021/12/20 04:52:54;;;;;;;32.10;21.43;;;6.10;99.90;;;;;;5033928;28;20515;-68
2021/12/20 04:55:23;;;;;;;35.93;21.13;;;6.20;99.90;;;;;;5035748;28;20520;-68
2021/12/20 04:57:50;;;;;;;29.50;21.37;;;6.20;99.90;;;;;;5043200;28;20470;-69
2021/12/20 05:00:19;;;;;;;27.77;20.70;;;6.20;99.90;;;;;;5038811;28;20559;-70
2021/12/20 05:02:46;;;;;;;30.43;21.17;;;6.20;99.90;;;;;;5028274;28;20468;-70
2021/12/20 05:05:13;;;;;;;27.13;20.80;;;6.20;99.90;;;;;;5039622;28;20540;-70
2021/12/20 05:07:41;;;;;;;27.00;20.53;;;6.10;99.90;;;;;;5037742;28;20540;-70
2021/12/20 05:10:13;;;;;;;24.13;20.53;;;6.20;99.90;;;;;;5033939;28;20998;-70
2021/12/20 05:12:41;;;;;;;23.17;20.80;;;6.10;99.90;;;;;;5029797;28;20467;-70
2021/12/20 05:15:08;;;;;;;23.43;21.03;;;6.10;99.90;;;;;;5035907;28;20466;-73
2021/12/20 05:17:36;;;;;;;31.23;21.10;;;6.10;99.90;;;;;;5042397;28;20467;-73
2021/12/20 05:20:05;;;;;;;27.57;20.60;;;6.10;99.90;;;;;;5033579;28;20472;-71
2021/12/20 05:22:32;;;;;;;29.43;22.30;;;6.10;99.90;;;;;;5032116;28;20465;-71
2021/12/20 05:24:58;;;;;;;24.90;20.40;;;6.20;99.90;;;;;;5037240;28;20529;-73
2021/12/20 05:27:27;;;;;;;25.50;20.77;;;6.20;99.90;;;;;;5037140;28;20467;-70
2021/12/20 05:29:54;;;;;;;27.87;20.00;;;6.10;99.90;;;;;;5034326;28;20460;-69
2021/12/20 05:32:21;;;;;;;24.33;20.87;;;6.10;99.90;;;;;;5043074;28;20512;-71
2021/12/20 05:34:48;;;;;;;25.03;22.10;;;6.10;99.90;;;;;;5040013;28;20620;-68
2021/12/20 05:37:16;;;;;;;33.03;20.03;;;6.10;99.90;;;;;;5034828;28;20462;-73
2021/12/20 05:39:44;;;;;;;28.70;20.37;;;6.10;99.90;;;;;;5033412;28;20473;-72
2021/12/20 05:42:11;;;;;;;29.23;20.50;;;6.10;99.90;;;;;;5038541;28;20903;-72
2021/12/20 05:44:40;;;;;;;29.30;20.20;;;6.10;99.90;;;;;;5034638;28;20492;-70
2021/12/20 05:47:07;;;;;;;22.93;19.10;;;6.00;99.90;;;;;;5039316;28;20483;-71
2021/12/20 05:49:34;;;;;;;23.37;19.53;;;6.00;99.90;;;;;;5037553;28;20965;-71
2021/12/20 05:52:03;;;;;;;22.47;20.00;;;6.10;99.90;;;;;;5037590;28;20468;-69
2021/12/20 05:54:29;;;;;;;21.40;19.40;;;6.10;99.90;;;;;;5040709;28;20480;-70
2021/12/20 05:56:57;;;;;;;21.93;19.80;;;6.10;99.90;;;;;;5036280;28;20943;-72
2021/12/20 05:59:24;;;;;;;22.00;19.73;;;6.00;99.90;;;;;;5035658;28;20468;-70
2021/12/20 06:01:52;;;;;;;27.27;20.27;;;6.00;99.90;;;;;;5035950;28;20563;-71
2021/12/20 06:04:19;;;;;;;24.53;20.23;;;6.00;99.90;;;;;;5033932;28;20497;-70
2021/12/20 06:06:46;;;;;;;21.90;19.70;;;6.00;99.90;;;;;;5034027;28;21265;-70
2021/12/20 06:09:13;;;;;;;21.00;18.90;;;6.00;99.90;;;;;;5035771;28;20479;-72
2021/12/20 06:11:40;;;;;;;23.63;20.30;;;5.90;99.90;;;;;;5035482;28;20472;-72
2021/12/20 06:14:07;;;;;;;26.17;19.77;;;5.90;99.90;;;;;;5037193;28;20468;-70
2021/12/20 06:16:34;;;;;;;30.27;19.67;;;5.90;99.90;;;;;;5032936;28;20492;-71
2021/12/20 06:19:03;;;;;;;21.20;19.30;;;6.00;99.90;;;;;;5041411;28;20464;-70
2021/12/20 06:21:30;;;;;;;21.10;18.70;;;6.00;99.90;;;;;;5029056;28;20480;-69
2021/12/20 06:23:57;;;;;;;34.70;19.50;;;6.10;99.90;;;;;;5034200;28;20487;-69
2021/12/20 06:26:24;;;;;;;23.40;19.73;;;6.10;99.90;;;;;;5035232;28;20474;-69
2021/12/20 06:28:51;;;;;;;24.50;19.10;;;6.10;99.90;;;;;;5033232;28;20526;-69
2021/12/20 06:31:19;;;;;;;35.27;19.90;;;6.10;99.90;;;;;;5035503;28;20542;-69
2021/12/20 06:33:46;;;;;;;29.93;19.53;;;6.10;99.90;;;;;;5033103;28;20463;-71
2021/12/20 06:36:15;;;;;;;21.80;19.47;;;6.10;99.90;;;;;;5032029;28;20476;-71
2021/12/20 06:38:45;;;;;;;21.17;18.63;;;6.10;99.90;;;;;;5042299;28;20528;-69
2021/12/20 06:41:13;;;;;;;26.70;19.10;;;6.00;99.90;;;;;;5038793;28;20560;-69
2021/12/20 06:43:40;;;;;;;36.00;22.63;;;6.00;99.90;;;;;;5034869;28;20517;-72
2021/12/20 06:46:07;;;;;;;27.10;21.43;;;6.10;99.90;;;;;;5040222;28;20480;-72
2021/12/20 06:48:35;;;;;;;25.10;20.10;;;6.10;99.90;;;;;;5031157;28;20558;-72
2021/12/20 06:51:02;;;;;;;32.73;19.90;;;6.10;99.90;;;;;;5034146;28;20548;-71
2021/12/20 06:53:30;;;;;;;30.37;19.20;;;6.10;99.90;;;;;;5035484;28;20491;-72
2021/12/20 06:55:58;;;;;;;27.33;19.30;;;6.10;99.90;;;;;;5030636;28;20475;-69
2021/12/20 06:58:25;;;;;;;38.50;20.50;;;6.00;99.90;;;;;;5033517;28;20478;-69
2021/12/20 07:00:54;;;;;;;23.60;19.00;;;6.10;99.90;;;;;;5037892;28;20469;-68
2021/12/20 07:03:22;;;;;;;23.93;20.43;;;6.10;99.90;;;;;;5041270;28;20553;-69
2021/12/20 07:05:49;;;;;;;34.73;20.10;;;6.10;99.90;;;;;;5028340;28;20855;-69
2021/12/20 07:08:17;;;;;;;21.63;19.53;;;6.00;99.90;;;;;;5029909;28;20469;-69
2021/12/20 07:10:45;;;;;;;21.97;19.90;;;6.00;99.90;;;;;;5035747;28;20554;-68
2021/12/20 07:13:12;;;;;;;23.30;19.80;;;6.00;99.90;;;;;;5036208;28;20895;-70
2021/12/20 07:15:39;;;;;;;23.57;21.03;;;6.00;99.90;;;;;;5042189;28;20455;-69
2021/12/20 07:18:06;;;;;;;25.73;20.23;;;6.00;99.90;;;;;;5035187;28;20459;-71
2021/12/20 07:20:33;;;;;;;29.63;19.60;;;6.10;99.90;;;;;;5035087;28;20813;-72
2021/12/20 07:23:02;;;;;;;26.07;19.73;;;6.00;99.90;;;;;;5033179;28;20473;-69
2021/12/20 07:25:29;;;;;;;24.77;19.50;;;6.00;99.90;;;;;;5037189;28;20534;-69
2021/12/20 07:27:57;;;;;;;41.60;20.30;;;6.10;99.90;;;;;;5030602;28;20472;-70
2021/12/20 07:30:24;;;;;;;20.73;18.73;;;6.10;99.90;;;;;;5037697;28;20465;-70
2021/12/20 07:32:51;;;;;;;20.93;19.30;;;6.10;99.90;;;;;;5032904;28;20466;-69
2021/12/20 07:35:19;;;;;;;22.10;19.93;;;6.00;99.90;;;;;;5031715;28;20467;-69
2021/12/20 07:37:47;;;;;;;24.67;20.57;;;6.10;99.90;;;;;;5030668;28;20469;-70
2021/12/20 07:40:14;;;;;;;22.60;20.07;;;6.00;99.90;;;;;;5033594;28;20521;-73
2021/12/20 07:42:41;;;;;;;27.70;20.80;;;6.00;99.90;;;;;;5031785;28;20484;-74
2021/12/20 07:45:12;;;;;;;27.47;22.40;;;6.10;99.90;;;;;;5036005;28;20494;-73
2021/12/20 07:47:38;;;;;;;27.53;20.53;;;6.10;99.90;;;;;;5034539;28;20510;-71
2021/12/20 07:50:07;;;;;;;31.90;21.40;;;6.10;99.90;;;;;;5028076;28;20522;-68
2021/12/20 07:52:34;;;;;;;27.47;21.90;;;6.10;99.90;;;;;;5036614;28;20474;-72
2021/12/20 07:55:00;;;;;;;24.07;21.60;;;6.20;99.90;;;;;;5027254;28;20467;-67
2021/12/20 07:57:28;;;;;;;29.57;20.10;;;6.20;99.90;;;;;;5026781;28;20471;-69
2021/12/20 07:59:54;;;;;;;23.87;19.50;;;6.20;99.90;;;;;;5032408;28;20463;-72
2021/12/20 08:02:23;;;;;;;27.43;20.03;;;6.10;99.90;;;;;;5034250;28;20473;-69
2021/12/20 08:04:50;;;;;;;24.23;19.43;;;6.10;99.90;;;;;;5038680;28;20530;-69
2021/12/20 08:07:22;;;;;;;23.47;20.93;;;6.20;99.90;;;;;;5033492;28;20656;-67
2021/12/20 08:09:50;;;;;;;24.30;20.93;;;6.20;99.90;;;;;;5032843;28;20555;-73
2021/12/20 08:12:18;;;;;;;27.63;20.40;;;6.20;99.90;;;;;;5036952;28;20471;-70
2021/12/20 08:14:45;;;;;;;29.13;21.27;;;6.20;99.90;;;;;;5039055;28;20455;-69
2021/12/20 08:17:12;;;;;;;30.73;20.70;;;6.20;99.90;;;;;;5034736;28;20477;-71
2021/12/20 08:19:42;;;;;;;21.97;19.73;;;6.20;99.90;;;;;;5038573;28;20465;-71
2021/12/20 08:22:09;;;;;;;31.47;20.77;;;6.30;99.90;;;;;;5027653;28;20461;-72
2021/12/20 08:24:35;;;;;;;25.60;20.37;;;6.30;99.90;;;;;;5031321;28;20481;-70
2021/12/20 08:27:02;;;;;;;31.23;21.60;;;6.30;99.90;;;;;;5031859;28;20463;-69
2021/12/20 08:29:29;;;;;;;29.63;21.43;;;6.30;99.90;;;;;;5031992;28;20470;-68
2021/12/20 08:32:01;;;;;;;22.03;20.00;;;6.30;99.90;;;;;;5035192;28;20482;-71
2021/12/20 08:34:28;;;;;;;43.87;22.30;;;6.30;99.90;;;;;;5031567;28;20479;-71
2021/12/20 08:36:57;;;;;;;29.67;22.40;;;6.30;99.90;;;;;;5035987;28;20534;-70
2021/12/20 08:39:24;;;;;;;39.03;21.83;;;6.20;99.90;;;;;;5039849;28;20966;-71
2021/12/20 08:41:50;;;;;;;32.67;21.10;;;6.10;99.90;;;;;;5035313;28;20681;-70
2021/12/20 08:44:17;;;;;;;29.60;21.37;;;6.10;99.90;;;;;;5034379;28;20493;-71
2021/12/20 08:46:44;;;;;;;33.63;21.30;;;6.10;99.90;;;;;;5035347;28;20781;-71
2021/12/20 08:49:11;;;;;;;24.17;20.77;;;6.00;99.90;;;;;;5033915;28;20474;-71
2021/12/20 08:51:39;;;;;;;26.57;21.17;;;6.10;99.90;;;;;;5040367;28;20963;-71
2021/12/20 08:54:07;;;;;;;23.30;20.73;;;6.10;99.90;;;;;;5038437;28;20878;-71
2021/12/20 08:56:35;;;;;;;28.37;20.23;;;6.10;99.90;;;;;;5031627;28;20472;-72
2021/12/20 08:59:02;;;;;;;33.80;23.50;;;6.10;99.90;;;;;;5041733;28;20459;-68
2021/12/20 09:01:28;;;;;;;33.43;21.10;;;6.00;99.90;;;;;;5039265;28;20997;-69
2021/12/20 09:03:57;;;;;;;27.70;20.90;;;5.90;99.90;;;;;;5037639;28;20457;-70
2021/12/20 09:06:24;;;;;;;24.10;19.80;;;5.80;99.90;;;;;;5038461;28;20502;-72
2021/12/20 09:08:53;;;;;;;24.77;21.03;;;5.70;99.90;;;;;;5039553;28;20559;-69
2021/12/20 09:11:22;;;;;;;28.57;20.53;;;5.60;99.90;;;;;;5036020;28;20461;-68
2021/12/20 09:13:49;;;;;;;41.90;20.47;;;5.60;99.90;;;;;;5032056;28;20490;-69
2021/12/20 09:16:17;;;;;;;34.70;21.23;;;5.50;99.90;;;;;;5041254;28;20462;-69
2021/12/20 09:18:43;;;;;;;42.77;21.50;;;5.50;99.90;;;;;;5036419;28;20466;-71
2021/12/20 09:21:11;;;;;;;35.33;21.73;;;5.50;99.90;;;;;;5039595;28;20465;-70
2021/12/20 09:23:38;;;;;;;33.13;22.30;;;5.50;99.90;;;;;;5032279;28;20986;-69
2021/12/20 09:26:06;;;;;;;36.63;22.87;;;5.50;99.90;;;;;;5039753;28;20809;-69
2021/12/20 09:28:34;;;;;;;25.47;20.20;;;5.50;99.90;;;;;;5035487;28;20471;-68
2021/12/20 09:31:03;;;;;;;29.20;21.37;;;5.50;99.90;;;;;;5040643;28;20457;-70
2021/12/20 09:33:30;;;;;;;32.97;21.30;;;5.60;99.90;;;;;;5037272;28;20456;-69
2021/12/20 09:35:57;;;;;;;35.20;20.67;;;5.50;99.90;;;;;;5035594;28;20472;-70
2021/12/20 09:38:25;;;;;;;32.50;20.40;;;5.50;99.90;;;;;;5038230;28;20806;-70
2021/12/20 09:43:43;;;;;;;31.60;20.60;;;5.50;99.90;;;;;;5040212;28;20529;-69
2021/12/20 09:46:10;;;;;;;36.57;20.40;;;5.60;99.90;;;;;;5041476;28;20500;-69
2021/12/20 09:48:37;;;;;;;37.63;22.30;;;5.70;99.90;;;;;;5045148;28;20464;-69
2021/12/20 09:51:06;;;;;;;32.83;20.37;;;5.80;99.90;;;;;;5031197;28;20460;-72
2021/12/20 09:53:33;;;;;;;30.53;20.80;;;5.80;99.90;;;;;;5031106;28;20471;-69
2021/12/20 09:56:02;;;;;;;26.57;20.03;;;5.80;99.90;;;;;;5035847;28;20467;-69
2021/12/20 09:58:34;;;;;;;63.97;23.10;;;5.90;99.90;;;;;;5033572;28;20462;-69
2021/12/20 10:01:03;;;;;;;30.20;20.60;;;5.90;99.90;;;;;;5037476;28;20547;-69
2021/12/20 10:03:31;;;;;;;39.17;21.87;;;5.90;99.90;;;;;;5031689;28;20996;-70
2021/12/20 10:05:58;;;;;;;35.53;22.30;;;5.90;99.90;;;;;;5034520;28;20512;-69
2021/12/20 10:08:32;;;;;;;35.87;22.07;;;5.80;99.90;;;;;;5030531;28;21132;-69
2021/12/20 10:11:00;;;;;;;41.93;21.20;;;5.90;99.90;;;;;;5028130;28;20469;-68
2021/12/20 10:13:30;;;;;;;42.67;22.80;;;5.90;99.90;;;;;;5037204;28;20469;-70
2021/12/20 10:15:58;;;;;;;35.77;22.57;;;6.00;99.90;;;;;;5032818;28;20457;-69
2021/12/20 10:18:28;;;;;;;43.03;23.10;;;6.10;99.90;;;;;;5032628;28;20464;-70
2021/12/20 10:20:57;;;;;;;35.40;22.20;;;6.10;99.90;;;;;;5030410;28;20469;-68
2021/12/20 10:23:27;;;;;;;48.40;23.97;;;6.20;99.90;;;;;;5029360;28;20475;-69
2021/12/20 10:25:56;;;;;;;41.10;23.97;;;6.30;99.90;;;;;;5029764;28;20502;-69
2021/12/20 10:28:25;;;;;;;46.37;23.27;;;6.30;99.90;;;;;;5028245;28;20464;-70
2021/12/20 10:30:56;;;;;;;45.30;25.57;;;6.30;99.90;;;;;;5036799;28;20459;-69
2021/12/20 10:33:24;;;;;;;53.27;26.70;;;6.40;99.90;;;;;;5030910;28;20468;-69
2021/12/20 10:35:54;;;;;;;47.60;24.63;;;6.50;99.90;;;;;;5028025;28;20459;-68
2021/12/20 10:38:30;;;;;;;49.87;25.40;;;6.60;99.90;;;;;;5028872;28;20467;-70
2021/12/20 10:41:00;;;;;;;42.17;23.33;;;6.60;99.90;;;;;;5026086;28;20497;-69
2021/12/20 10:43:29;;;;;;;47.63;23.53;;;6.70;99.90;;;;;;5028654;28;20548;-69
2021/12/20 10:45:57;;;;;;;39.43;24.47;;;6.70;99.90;;;;;;5034114;28;20502;-71
2021/12/20 10:48:32;;;;;;;45.40;23.33;;;6.70;99.90;;;;;;5028517;28;20458;-70
2021/12/20 10:51:01;;;;;;;46.23;24.60;;;6.80;99.90;;;;;;5040587;28;20549;-71
2021/12/20 10:53:28;;;;;;;43.10;23.27;;;6.90;99.90;;;;;;5035847;28;20965;-70
2021/12/20 10:55:58;;;;;;;41.93;24.53;;;7.00;99.90;;;;;;5033489;28;20977;-68
2021/12/20 10:58:32;;;;;;;36.63;23.20;;;7.00;99.90;;;;;;5024503;28;20507;-72
2021/12/20 11:01:20;;;;;;;40.10;22.70;;;7.10;99.90;;;;;;5033153;28;20465;-69
2021/12/20 11:04:03;;;;;;;37.83;23.03;;;7.30;99.90;;;;;;5032611;28;20463;-68
2021/12/20 11:06:57;;;;;;;43.93;23.20;;;7.30;99.90;;;;;;5033230;28;20488;-69
2021/12/20 11:09:31;;;;;;;36.50;22.70;;;7.30;99.90;;;;;;5033100;28;20477;-69
2021/12/20 11:12:00;;;;;;;33.90;22.10;;;7.30;99.90;;;;;;5029409;28;20794;-68
2021/12/20 11:14:29;;;;;;;27.53;23.13;;;7.40;99.90;;;;;;5027933;28;20468;-67
2021/12/20 11:16:58;;;;;;;40.40;22.17;;;7.50;99.90;;;;;;5029365;28;20460;-70
2021/12/20 11:19:27;;;;;;;36.70;22.80;;;7.50;99.90;;;;;;5025427;28;20483;-69
2021/12/20 11:22:08;;;;;;;34.03;22.80;;;7.60;99.90;;;;;;5028917;28;20461;-69
2021/12/20 11:24:44;;;;;;;46.00;23.10;;;7.70;99.90;;;;;;5023273;28;20475;-70
2021/12/20 11:27:13;;;;;;;40.83;22.50;;;7.70;99.90;;;;;;5027340;28;20870;-69
2021/12/20 11:29:41;;;;;;;32.57;22.00;;;7.80;99.90;;;;;;5026907;28;20467;-69
2021/12/20 11:32:09;;;;;;;37.77;21.93;;;7.80;99.90;;;;;;5042966;28;20466;-69
2021/12/20 11:34:37;;;;;;;26.47;21.10;;;7.90;99.90;;;;;;5030243;28;20496;-71
2021/12/20 11:37:06;;;;;;;37.37;21.43;;;7.90;99.90;;;;;;5031766;28;20496;-70
2021/12/20 11:39:33;;;;;;;42.93;22.30;;;7.90;99.90;;;;;;5025480;28;20479;-69
2021/12/20 11:42:00;;;;;;;31.53;22.10;;;8.50;99.90;;;;;;5028195;28;20491;-70
2021/12/20 11:44:30;;;;;;;25.33;20.57;;;9.20;99.90;;;;;;5022468;28;20575;-69
2021/12/20 11:47:07;;;;;;;33.50;19.53;;;9.90;99.90;;;;;;5028632;28;20498;-69
2021/12/20 11:49:36;;;;;;;27.87;19.77;;;10.30;99.90;;;;;;5022243;28;20801;-69
2021/12/20 11:52:15;;;;;;;30.37;21.17;;;10.40;99.90;;;;;;5026566;28;20960;-69
2021/12/20 11:54:47;;;;;;;23.33;20.83;;;10.50;99.90;;;;;;5028072;28;20552;-69
2021/12/20 11:57:43;;;;;;;31.23;20.00;;;10.50;99.90;;;;;;5029395;28;20478;-69
2021/12/20 12:00:28;;;;;;;20.80;18.87;;;10.50;99.90;;;;;;5016179;28;20460;-70
2021/12/20 12:02:59;;;;;;;24.97;18.90;;;10.20;99.90;;;;;;5032213;28;20464;-69
2021/12/20 12:05:32;;;;;;;22.90;19.37;;;10.40;99.90;;;;;;5023587;28;20484;-71
2021/12/20 12:08:38;;;;;;;21.23;18.80;;;10.50;99.90;;;;;;5028632;28;20468;-70
2021/12/20 12:11:31;;;;;;;25.53;18.60;;;10.80;99.90;;;;;;5026664;28;20468;-71
2021/12/20 12:14:19;;;;;;;23.33;18.77;;;11.00;99.90;;;;;;5028776;28;20468;-69
2021/12/20 12:17:02;;;;;;;34.00;19.43;;;11.10;99.90;;;;;;5029578;28;20464;-72
2021/12/20 12:19:48;;;;;;;21.93;18.40;;;10.90;99.90;;;;;;5035692;28;20460;-71
2021/12/20 12:22:36;;;;;;;21.40;19.30;;;10.90;99.90;;;;;;5020530;28;20471;-69
2021/12/20 12:25:05;;;;;;;29.97;19.67;;;11.20;99.90;;;;;;5026460;28;20471;-69
2021/12/20 12:27:35;;;;;;;21.53;18.93;;;11.30;99.90;;;;;;5035355;28;20805;-71
2021/12/20 12:30:33;;;;;;;36.63;19.60;;;11.00;99.90;;;;;;5037752;28;20467;-69
2021/12/20 12:33:23;;;;;;;30.13;18.93;;;11.10;99.90;;;;;;5028025;28;20468;-68
2021/12/20 12:35:59;;;;;;;21.90;19.37;;;11.40;99.90;;;;;;5028420;28;20480;-69
2021/12/20 12:38:31;;;;;;;22.50;18.40;;;11.70;99.90;;;;;;5038639;28;20498;-70
2021/12/20 12:41:18;;;;;;;27.03;18.90;;;12.20;99.90;;;;;;5029529;28;20865;-69
2021/12/20 12:44:08;;;;;;;35.27;18.60;;;12.10;99.90;;;;;;5034240;28;20472;-70
2021/12/20 12:46:47;;;;;;;23.37;18.87;;;12.60;99.90;;;;;;5038750;28;20603;-69
2021/12/20 12:49:36;;;;;;;24.27;19.93;;;12.60;99.90;;;;;;5036615;28;21118;-68
2021/12/20 12:52:05;;;;;;;21.13;19.03;;;12.70;99.90;;;;;;5034791;28;20465;-71
2021/12/20 12:54:41;;;;;;;20.80;18.77;;;12.70;99.90;;;;;;5033456;28;20459;-69
2021/12/20 12:57:30;;;;;;;21.50;19.30;;;12.20;99.90;;;;;;5032040;28;20494;-70
2021/12/20 13:00:06;;;;;;;19.80;17.90;;;12.00;99.90;;;;;;5029035;28;20468;-71
2021/12/20 13:02:37;;;;;;;20.03;18.30;;;12.30;99.90;;;;;;5037572;28;21055;-71